Time;durP1;ratioP1;P1;durP2;ratioP2;P2;SDS_P1;SDS_P2;PMS_P1;PMS_P2;Temp;Humidity;BMP_temperature;BMP_pressure;BME280_temperature;BME280_humidity;BME280_pressure;Samples;Min_cycle;Max_cycle;Signal;HPM_P1;HPM_P2
2023/10/07 00:00:28;;;;;;;4.82;2.05;;;;;;;21.05;55.01;102183.13;5004703;28;20128;-36
2023/10/07 00:02:59;;;;;;;5.28;2.05;;;;;;;21.04;55.17;102186.84;5001260;28;20046;-36
2023/10/07 00:05:32;;;;;;;5.53;2.25;;;;;;;21.04;55.07;102176.03;5008258;28;20054;-36
2023/10/07 00:08:19;;;;;;;3.70;1.90;;;;;;;21.04;55.01;102190.38;5005605;28;20062;-36
2023/10/07 00:10:49;;;;;;;4.43;2.33;;;;;;;21.04;55.25;102190.38;5000678;28;20046;-36
2023/10/07 00:13:20;;;;;;;4.10;2.35;;;;;;;21.02;55.04;102186.94;5003867;28;20046;-36
2023/10/07 00:15:50;;;;;;;5.03;2.33;;;;;;;21.02;55.04;102189.66;5004314;28;20527;-36
2023/10/07 00:18:22;;;;;;;4.88;1.98;;;;;;;21.02;55.03;102195.03;5007755;28;20061;-36
2023/10/07 00:20:53;;;;;;;4.47;2.00;;;;;;;21.02;55.22;102184.25;5003079;28;20049;-36
2023/10/07 00:23:26;;;;;;;6.40;2.33;;;;;;;21.02;55.20;102189.66;5006053;28;20050;-36
2023/10/07 00:25:54;;;;;;;5.47;2.10;;;;;;;21.01;54.88;102179.88;5003842;28;20393;-36
2023/10/07 00:28:32;;;;;;;9.18;2.78;;;;;;;21.01;54.98;102182.56;5003362;28;20065;-36
2023/10/07 00:31:04;;;;;;;9.13;2.45;;;;;;;21.00;55.18;102178.16;5005489;28;20570;-36
2023/10/07 00:33:49;;;;;;;12.82;2.88;;;;;;;21.00;54.84;102180.88;5003556;28;20038;-36
2023/10/07 00:36:41;;;;;;;4.97;1.98;;;;;;;20.99;55.34;102171.09;5002007;28;20077;-36
2023/10/07 00:39:09;;;;;;;6.53;2.25;;;;;;;21.01;55.18;102166.38;5004449;28;20435;-36
2023/10/07 00:41:45;;;;;;;4.43;1.90;;;;;;;21.01;55.18;102165.53;5003847;28;20062;-36
2023/10/07 00:44:31;;;;;;;4.60;2.38;;;;;;;21.00;54.84;102170.09;5002760;28;20045;-36
2023/10/07 00:49:47;;;;;;;10.38;2.50;;;;;;;21.00;55.44;102170.09;5005936;28;20108;-36
2023/10/07 00:52:32;;;;;;;6.20;2.35;;;;;;;20.99;55.18;102171.09;5010308;28;20680;-36
2023/10/07 00:57:35;;;;;;;6.03;2.47;;;;;;;20.99;55.05;102173.78;5005743;28;20089;-36
2023/10/07 01:00:14;;;;;;;5.95;2.15;;;;;;;20.99;55.59;102178.31;5004582;28;20135;-36
2023/10/07 01:02:41;;;;;;;5.22;2.08;;;;;;;20.98;54.92;102187.38;5002498;28;20046;-36
2023/10/07 01:05:13;;;;;;;6.35;2.10;;;;;;;20.98;55.17;102180.13;5006217;28;20612;-36
2023/10/07 01:07:48;;;;;;;7.60;2.60;;;;;;;20.98;55.20;102179.28;5002141;28;20450;-36
2023/10/07 01:10:15;;;;;;;3.53;1.77;;;;;;;20.98;55.15;102180.13;4999605;28;20426;-36
2023/10/07 01:12:44;;;;;;;6.72;2.95;;;;;;;20.98;55.31;102179.28;5001628;28;20049;-36
2023/10/07 01:15:24;;;;;;;4.50;2.30;;;;;;;20.98;55.39;102184.69;5001966;28;20493;-36
2023/10/07 01:17:57;;;;;;;3.58;2.08;;;;;;;20.98;54.88;102176.59;5002881;28;20073;-36
2023/10/07 01:20:35;;;;;;;6.45;2.65;;;;;;;20.98;55.19;102181.97;5006774;28;20049;-36
2023/10/07 01:23:04;;;;;;;6.60;2.17;;;;;;;20.97;55.23;102173.06;5006781;28;20108;-37
2023/10/07 01:25:34;;;;;;;6.20;2.78;;;;;;;20.97;55.18;102183.84;5004235;28;20052;-36
2023/10/07 01:28:02;;;;;;;5.38;1.98;;;;;;;20.98;55.08;102187.38;5001623;28;20052;-36
2023/10/07 01:30:30;;;;;;;5.35;2.30;;;;;;;20.98;55.05;102185.53;5000288;28;20054;-36
2023/10/07 01:33:02;;;;;;;5.25;2.13;;;;;;;20.97;55.21;102183.84;5001782;28;20172;-36
2023/10/07 01:35:39;;;;;;;4.88;2.35;;;;;;;20.98;55.21;102176.59;5001793;28;20054;-36
2023/10/07 01:38:09;;;;;;;5.38;2.00;;;;;;;20.97;55.20;102170.34;5000318;28;20637;-36
2023/10/07 01:43:19;;;;;;;4.22;1.92;;;;;;;20.98;54.99;102163.13;5000823;28;20053;-36
2023/10/07 01:45:48;;;;;;;4.28;1.80;;;;;;;20.98;55.42;102160.41;4999364;28;20049;-36
2023/10/07 01:48:17;;;;;;;7.72;2.58;;;;;;;20.98;55.13;102163.13;5000157;28;20057;-36
2023/10/07 01:50:45;;;;;;;4.95;2.00;;;;;;;20.98;54.86;102165.81;5003442;28;20065;-36
2023/10/07 01:53:14;;;;;;;5.53;2.20;;;;;;;20.98;55.19;102166.66;5003348;28;20045;-36
2023/10/07 01:55:52;;;;;;;5.30;2.08;;;;;;;20.99;54.89;102160.31;5006288;28;20100;-36
2023/10/07 01:58:19;;;;;;;4.25;1.88;;;;;;;20.99;54.75;102163.00;5008639;28;20045;-36
2023/10/07 02:00:51;;;;;;;5.05;2.20;;;;;;;21.00;55.10;102147.66;5002964;28;20042;-36
2023/10/07 02:03:22;;;;;;;4.85;2.50;;;;;;;21.01;55.05;102146.66;5001691;28;20048;-36
2023/10/07 02:05:48;;;;;;;4.22;2.03;;;;;;;21.01;55.06;102155.59;4999003;28;20052;-36
2023/10/07 02:08:20;;;;;;;4.82;2.28;;;;;;;21.01;55.27;102146.66;4999229;28;20460;-36
2023/10/07 02:10:58;;;;;;;5.32;2.30;;;;;;;21.00;55.00;102148.53;5000493;28;20155;-36
2023/10/07 02:13:29;;;;;;;3.97;2.15;;;;;;;21.01;54.98;102150.22;5002323;28;20054;-36
2023/10/07 02:15:56;;;;;;;4.50;2.30;;;;;;;21.00;54.74;102151.22;5001177;28;20334;-36
2023/10/07 02:18:26;;;;;;;3.65;1.88;;;;;;;21.02;54.81;102151.06;5000025;28;20387;-36
2023/10/07 02:21:13;;;;;;;4.95;2.45;;;;;;;21.02;55.20;102156.44;5004579;28;20172;-36
2023/10/07 02:23:40;;;;;;;7.50;2.33;;;;;;;21.02;55.07;102153.75;5000098;28;20063;-36
2023/10/07 02:26:16;;;;;;;4.35;1.60;;;;;;;21.03;54.95;102147.41;5001941;28;20116;-36
2023/10/07 02:28:44;;;;;;;3.78;1.60;;;;;;;21.03;54.63;102145.56;5006200;28;20429;-36
2023/10/07 02:31:18;;;;;;;3.85;1.83;;;;;;;21.03;55.26;102142.00;5002514;28;20052;-36
2023/10/07 02:33:51;;;;;;;3.55;1.70;;;;;;;21.03;54.97;102142.00;4999958;28;20363;-36
2023/10/07 02:36:31;;;;;;;2.85;1.50;;;;;;;21.05;54.99;102148.94;5001440;28;20461;-36
2023/10/07 02:41:46;;;;;;;3.65;1.73;;;;;;;21.05;nan;102137.31;5002833;28;20057;-36
2023/10/07 02:44:16;;;;;;;4.70;2.17;;;;;;;21.05;54.90;102138.16;4998229;28;20054;-36
2023/10/07 02:46:52;;;;;;;3.75;1.60;;;;;;;21.05;54.58;102143.53;5000983;28;20089;-36
2023/10/07 02:49:20;;;;;;;3.22;1.80;;;;;;;21.06;54.96;102147.09;4999008;28;20042;-36
2023/10/07 02:51:57;;;;;;;3.40;1.60;;;;;;;21.06;54.71;102152.47;5000203;28;20054;-36
2023/10/07 02:54:32;;;;;;;2.90;1.27;;;;;;;21.07;54.88;102156.91;4999639;28;20078;-36
2023/10/07 02:57:11;;;;;;;3.63;1.83;;;;;;;21.07;55.01;102160.44;4999349;28;20377;-36
2023/10/07 02:59:50;;;;;;;4.55;1.52;;;;;;;21.07;55.20;102156.91;5001775;28;20120;-36
2023/10/07 03:05:06;;;;;;;3.83;1.77;;;;;;;21.07;54.92;102155.06;5004899;28;20095;-36
2023/10/07 03:07:34;;;;;;;3.13;1.80;;;;;;;21.08;54.96;102145.97;5000332;28;21129;-36
2023/10/07 03:12:57;;;;;;;3.35;1.65;;;;;;;21.09;55.00;102141.41;4951143;28;20063;-36
2023/10/07 03:18:01;;;;;;;3.17;1.70;;;;;;;21.08;54.65;102137.88;4997944;28;20485;-36
2023/10/07 03:20:46;;;;;;;3.28;1.98;;;;;;;21.09;55.12;102136.88;5000721;28;20057;-36
2023/10/07 03:23:19;;;;;;;4.97;1.70;;;;;;;21.10;54.67;102137.72;5007914;28;20053;-36
2023/10/07 03:28:34;;;;;;;3.13;2.00;;;;;;;21.09;55.18;102133.34;5000873;28;20409;-36
2023/10/07 03:31:10;;;;;;;3.88;1.60;;;;;;;21.10;54.93;102126.94;5003794;28;20058;-36
2023/10/07 03:34:13;;;;;;;4.10;1.90;;;;;;;21.10;55.18;102126.94;4999407;28;20053;-36
2023/10/07 03:36:41;;;;;;;4.93;1.92;;;;;;;21.11;55.08;102117.88;5000325;28;20049;-36
2023/10/07 03:41:55;;;;;;;4.03;1.65;;;;;;;21.09;55.08;102125.25;4997433;28;20054;-36
2023/10/07 03:44:25;;;;;;;3.00;1.70;;;;;;;21.10;54.87;102135.88;4996121;28;20078;-36
2023/10/07 03:46:54;;;;;;;3.85;1.90;;;;;;;21.12;55.09;102131.22;5000273;28;20050;-36
2023/10/07 03:49:22;;;;;;;3.40;1.52;;;;;;;21.09;55.25;102126.09;4997824;28;20064;-36
2023/10/07 03:52:03;;;;;;;4.30;1.70;;;;;;;21.10;54.91;102130.47;5001098;28;20296;-36
2023/10/07 03:54:30;;;;;;;5.40;1.88;;;;;;;21.11;54.65;102124.13;4998047;28;20338;-36
2023/10/07 03:57:00;;;;;;;4.43;1.88;;;;;;;21.09;54.99;102128.78;5007757;28;20137;-36
2023/10/07 03:59:31;;;;;;;3.45;1.63;;;;;;;21.10;54.74;102126.94;5003051;28;20657;-36
2023/10/07 04:01:58;;;;;;;3.33;1.80;;;;;;;21.10;55.00;102125.09;5001854;28;20052;-36
2023/10/07 04:04:25;;;;;;;4.55;1.90;;;;;;;21.11;54.79;102123.28;5005075;28;20441;-36
2023/10/07 04:06:52;;;;;;;2.95;1.50;;;;;;;21.10;55.00;102124.25;5003298;28;20057;-36
2023/10/07 04:09:27;;;;;;;3.58;1.52;;;;;;;21.10;54.78;102122.41;5001112;28;20104;-36
2023/10/07 04:11:53;;;;;;;3.08;1.58;;;;;;;21.11;54.95;102123.28;5006816;28;20057;-36
2023/10/07 04:14:30;;;;;;;3.88;1.88;;;;;;;21.11;54.82;102117.88;5001109;28;20046;-36
2023/10/07 04:17:11;;;;;;;3.30;1.70;;;;;;;21.11;54.84;102120.56;5001914;28;20054;-36
2023/10/07 04:19:42;;;;;;;3.17;1.60;;;;;;;21.10;54.78;102122.41;5001107;28;20050;-36
2023/10/07 04:22:09;;;;;;;2.85;1.42;;;;;;;21.11;54.94;102123.28;5002594;28;20056;-36
2023/10/07 04:24:43;;;;;;;3.83;1.70;;;;;;;21.11;55.24;102123.28;5001449;28;20045;-36
2023/10/07 04:27:18;;;;;;;5.00;1.90;;;;;;;21.09;54.99;102123.41;5009165;28;20053;-36
2023/10/07 04:29:46;;;;;;;3.15;1.45;;;;;;;21.10;54.91;102119.69;5006787;28;20050;-36
2023/10/07 04:32:21;;;;;;;2.95;1.50;;;;;;;21.10;54.97;102122.41;5002126;28;20295;-36
2023/10/07 04:35:06;;;;;;;3.97;1.35;;;;;;;21.10;55.33;102124.25;4998582;28;20139;-36
2023/10/07 04:43:25;;;;;;;3.40;1.60;;;;;;;21.10;54.86;102110.75;5005529;28;20120;-36
2023/10/07 04:45:53;;;;;;;4.75;1.90;;;;;;;21.10;54.66;102099.97;5002110;28;20104;-36
2023/10/07 04:48:40;;;;;;;3.60;1.80;;;;;;;21.10;55.28;102098.13;5003352;28;20058;-36
2023/10/07 04:51:12;;;;;;;3.33;1.85;;;;;;;21.10;54.86;102103.53;5004136;28;20399;-36
2023/10/07 04:53:39;;;;;;;3.15;1.75;;;;;;;21.10;55.13;102099.97;4999401;28;20058;-36
2023/10/07 04:56:08;;;;;;;3.38;1.83;;;;;;;21.10;54.81;102094.59;5000288;28;20058;-36
2023/10/07 04:58:39;;;;;;;3.53;1.75;;;;;;;21.10;55.01;102102.69;5003005;28;20062;-36
2023/10/07 05:01:56;;;;;;;3.35;1.60;;;;;;;21.09;55.03;102098.28;5003235;28;20077;-36
2023/10/07 05:03:58;;;;;;;4.75;1.67;;;;;;;21.09;55.25;102109.91;4998280;28;20057;-36
2023/10/07 05:06:25;;;;;;;2.80;1.75;;;;;;;21.08;55.03;102100.13;5001396;28;20087;-36
2023/10/07 05:08:52;;;;;;;5.15;2.10;;;;;;;21.09;55.16;102098.28;4995063;28;20057;-36
2023/10/07 05:11:19;;;;;;;3.45;1.45;;;;;;;21.09;54.83;102090.19;4997752;28;20049;-36
2023/10/07 05:13:47;;;;;;;3.40;1.40;;;;;;;21.08;55.44;102088.50;4997911;28;20160;-36
2023/10/07 05:16:14;;;;;;;3.95;1.70;;;;;;;21.08;55.33;102089.34;5004467;28;20058;-36
2023/10/07 05:18:42;;;;;;;4.85;1.88;;;;;;;21.07;55.51;102103.84;5002136;28;20042;-36
2023/10/07 05:21:08;;;;;;;4.20;1.85;;;;;;;21.07;55.12;102095.75;4999583;28;20042;-36
2023/10/07 05:23:36;;;;;;;4.63;1.83;;;;;;;21.07;55.30;102109.22;4999481;28;20104;-36
2023/10/07 05:26:03;;;;;;;5.07;2.28;;;;;;;21.07;55.17;102111.06;5001237;28;20298;-36
2023/10/07 05:28:33;;;;;;;4.38;2.10;;;;;;;21.07;55.31;102125.41;5003813;28;20398;-36
2023/10/07 05:31:05;;;;;;;4.18;1.88;;;;;;;21.07;55.43;102128.09;5001033;28;20358;-36
2023/10/07 05:33:35;;;;;;;3.85;2.22;;;;;;;21.07;55.41;102124.56;5000007;28;20911;-36
2023/10/07 05:36:13;;;;;;;5.40;2.35;;;;;;;21.06;55.66;102126.38;5001745;28;20046;-36
2023/10/07 05:38:42;;;;;;;6.18;2.25;;;;;;;21.07;55.31;102133.50;5003896;28;20134;-36
2023/10/07 05:41:14;;;;;;;3.25;1.73;;;;;;;21.07;55.36;102141.56;5000101;28;20350;-36
2023/10/07 05:43:43;;;;;;;3.00;1.88;;;;;;;21.07;55.13;102135.34;5000568;28;20054;-36
2023/10/07 05:46:11;;;;;;;4.40;1.67;;;;;;;21.07;55.55;102128.09;5002576;28;20382;-36
2023/10/07 05:48:40;;;;;;;4.78;2.03;;;;;;;21.07;55.69;102132.63;5002382;28;20095;-36
2023/10/07 05:51:07;;;;;;;2.92;1.60;;;;;;;21.08;55.00;102128.94;5000186;28;20054;-36
2023/10/07 05:53:38;;;;;;;4.47;1.42;;;;;;;21.07;55.21;102127.25;5000652;28;20062;-36
2023/10/07 05:56:06;;;;;;;3.92;1.65;;;;;;;21.07;55.52;102122.69;4999771;28;20046;-36
2023/10/07 05:58:37;;;;;;;4.13;1.55;;;;;;;21.06;55.75;102120.97;5005719;28;20057;-36
2023/10/07 06:01:05;;;;;;;3.88;1.65;;;;;;;21.07;55.58;102120.00;5000601;28;20054;-36
2023/10/07 06:03:36;;;;;;;2.85;1.60;;;;;;;21.07;55.31;102124.56;5005142;28;20798;-36
2023/10/07 06:06:04;;;;;;;3.95;1.67;;;;;;;21.07;55.34;102117.31;5006341;28;20141;-36
2023/10/07 06:08:34;;;;;;;2.63;1.80;;;;;;;21.07;55.60;102116.47;5009165;28;20050;-36
2023/10/07 06:11:03;;;;;;;4.32;1.70;;;;;;;21.07;55.40;102111.06;5004050;28;20100;-36
2023/10/07 06:13:33;;;;;;;4.75;1.92;;;;;;;21.07;55.54;102117.31;5002827;28;20092;-36
2023/10/07 06:16:04;;;;;;;3.97;1.70;;;;;;;21.07;55.69;102117.31;4997653;28;20061;-36
2023/10/07 06:18:33;;;;;;;3.10;1.30;;;;;;;21.07;55.51;102124.56;4996780;28;20045;-36
2023/10/07 06:21:19;;;;;;;4.15;1.95;;;;;;;21.07;55.65;102122.69;4998599;28;20061;-36
2023/10/07 06:23:48;;;;;;;5.82;1.80;;;;;;;21.07;55.25;102121.84;4997178;28;20054;-36
2023/10/07 06:26:15;;;;;;;3.53;1.60;;;;;;;21.08;55.45;102120.84;5000058;28;20046;-36
2023/10/07 06:28:48;;;;;;;4.18;1.88;;;;;;;21.08;55.65;102118.16;5002964;28;20061;-36
2023/10/07 06:31:34;;;;;;;;;;;;;;;21.06;55.62;102120.97;5004744;28;20426;-36
2023/10/07 06:34:03;;;;;;;5.53;1.77;;;;;;;21.10;55.56;102125.09;5003106;28;20209;-36
2023/10/07 06:36:31;;;;;;;5.32;2.20;;;;;;;21.08;55.75;102121.69;4998260;28;20066;-36
2023/10/07 06:39:01;;;;;;;5.47;2.10;;;;;;;21.07;55.36;102117.31;4999739;28;20046;-37
2023/10/07 06:41:29;;;;;;;5.35;2.00;;;;;;;21.07;55.41;102114.63;5005139;28;20050;-36
2023/10/07 06:43:59;;;;;;;5.28;2.03;;;;;;;21.08;55.51;102123.56;5005703;28;20058;-36
2023/10/07 06:46:29;;;;;;;5.35;2.10;;;;;;;21.07;55.99;102117.31;5005178;28;20073;-36
2023/10/07 06:48:56;;;;;;;5.60;1.98;;;;;;;21.08;55.77;102118.16;5003830;28;20152;-36
2023/10/07 06:51:23;;;;;;;3.38;1.65;;;;;;;21.08;55.58;102126.25;4999111;28;20077;-36
2023/10/07 06:53:51;;;;;;;6.72;2.55;;;;;;;21.07;56.05;102125.41;4999035;28;20082;-36
2023/10/07 06:56:21;;;;;;;4.45;2.05;;;;;;;21.08;55.69;102134.34;4999461;28;20050;-36
2023/10/07 06:58:54;;;;;;;5.78;2.33;;;;;;;21.09;55.95;102136.88;4989161;28;20057;-36
2023/10/07 07:01:35;;;;;;;6.30;2.78;;;;;;;21.08;55.54;102134.34;4999930;28;20136;-36
2023/10/07 07:04:11;;;;;;;7.97;2.30;;;;;;;21.08;55.85;102139.72;5001879;28;20054;-36
2023/10/07 07:06:46;;;;;;;6.53;2.20;;;;;;;21.09;55.72;102147.66;4998545;28;20086;-36
2023/10/07 07:12:04;;;;;;;6.72;2.55;;;;;;;21.10;55.88;102145.81;4997736;28;20050;-36
2023/10/07 07:14:31;;;;;;;5.65;2.20;;;;;;;21.11;55.97;102155.63;5004367;28;20042;-36
2023/10/07 07:17:28;;;;;;;6.53;2.22;;;;;;;21.12;56.10;102154.63;5006248;28;20096;-36
2023/10/07 07:19:44;;;;;;;5.72;2.00;;;;;;;21.12;55.79;102146.53;4996900;28;20060;-36
2023/10/07 07:22:11;;;;;;;6.68;3.22;;;;;;;21.13;56.28;102157.16;5000610;28;20446;-36
2023/10/07 07:24:41;;;;;;;5.13;2.13;;;;;;;21.14;55.93;102169.66;4998192;28;20042;-36
2023/10/07 07:27:08;;;;;;;7.43;2.28;;;;;;;21.15;55.89;102174.06;5000370;28;20049;-36
2023/10/07 07:29:35;;;;;;;5.72;2.58;;;;;;;21.16;56.05;102174.91;5004138;28;20389;-36
2023/10/07 07:32:04;;;;;;;7.68;2.45;;;;;;;21.16;56.11;102178.47;5003454;28;20054;-36
2023/10/07 07:34:36;;;;;;;8.88;2.75;;;;;;;21.18;55.57;102178.31;5004557;28;20045;-36
2023/10/07 07:37:03;;;;;;;5.18;2.70;;;;;;;21.18;55.78;102178.31;5005298;28;20097;-36
2023/10/07 07:39:30;;;;;;;5.38;2.47;;;;;;;21.20;55.90;102181.72;5005443;28;20129;-36
2023/10/07 07:42:15;;;;;;;8.02;2.63;;;;;;;21.19;55.88;102186.28;5006855;28;20050;-36
2023/10/07 07:44:56;;;;;;;8.20;2.47;;;;;;;21.22;56.11;102190.50;5005570;28;20486;-36
2023/10/07 07:47:24;;;;;;;7.20;2.78;;;;;;;21.24;56.31;102193.09;5007013;28;20050;-36
2023/10/07 07:49:51;;;;;;;6.57;2.33;;;;;;;21.25;55.77;102190.22;5007554;28;20077;-36
2023/10/07 07:52:19;;;;;;;7.72;2.75;;;;;;;21.26;55.92;102186.53;5004729;28;20342;-36
2023/10/07 07:54:46;;;;;;;6.82;3.33;;;;;;;21.26;55.74;102189.22;4999162;28;20050;-36
2023/10/07 07:57:16;;;;;;;6.85;2.50;;;;;;;21.28;56.18;102186.41;5010365;28;20138;-36
2023/10/07 07:59:43;;;;;;;8.90;2.78;;;;;;;21.29;55.93;102185.41;5002254;28;20090;-36
2023/10/07 08:02:15;;;;;;;7.93;2.75;;;;;;;21.30;55.70;102168.22;5003472;28;20053;-36
2023/10/07 08:04:46;;;;;;;5.85;2.60;;;;;;;21.32;55.94;102171.66;5006066;28;20158;-36
2023/10/07 08:07:19;;;;;;;8.20;3.38;;;;;;;21.34;55.95;102166.97;5007806;28;20056;-36
2023/10/07 08:09:50;;;;;;;7.57;2.60;;;;;;;21.33;55.99;102166.13;5004493;28;20107;-37
2023/10/07 08:12:34;;;;;;;6.30;2.60;;;;;;;21.35;55.98;102166.00;5008815;28;20078;-37
2023/10/07 08:17:40;;;;;;;9.93;3.40;;;;;;;21.37;55.98;102151.38;5007596;28;20061;-37
2023/10/07 08:20:11;;;;;;;8.63;3.25;;;;;;;21.37;55.83;102156.75;5003481;28;20041;-37
2023/10/07 08:22:45;;;;;;;11.02;3.40;;;;;;;21.39;56.10;102162.88;5004128;28;20129;-37
2023/10/07 08:28:38;;;;;;;8.80;3.58;;;;;;;21.43;55.94;102163.44;4986361;28;20518;-37
2023/10/07 08:31:18;;;;;;;10.38;4.13;;;;;;;21.44;56.16;102163.28;5005023;28;20046;-37
2023/10/07 08:34:11;;;;;;;6.97;2.95;;;;;;;21.47;55.94;102155.88;5007645;28;20100;-37
2023/10/07 08:36:46;;;;;;;7.63;3.22;;;;;;;21.49;55.83;102164.69;5003202;28;20457;-37
2023/10/07 08:39:17;;;;;;;12.35;3.58;;;;;;;21.49;56.02;102175.50;5010267;28;20077;-37
2023/10/07 08:41:52;;;;;;;9.73;3.70;;;;;;;21.50;55.98;102166.38;5006209;28;20255;-37
2023/10/07 08:44:20;;;;;;;8.35;2.95;;;;;;;21.51;56.00;102168.97;4998557;28;20050;-37
2023/10/07 08:46:49;;;;;;;11.02;3.65;;;;;;;21.52;55.88;102162.56;5001703;28;20078;-37
2023/10/07 08:49:17;;;;;;;8.88;3.20;;;;;;;21.53;55.78;102172.34;5002332;28;20065;-37
2023/10/07 08:51:44;;;;;;;6.68;2.92;;;;;;;21.53;56.09;102166.97;5001370;28;20060;-37
2023/10/07 08:54:17;;;;;;;8.13;3.25;;;;;;;21.56;55.92;102173.91;5005040;28;20050;-37
2023/10/07 08:56:52;;;;;;;9.20;3.35;;;;;;;21.57;56.21;102175.63;5006045;28;20073;-37
2023/10/07 08:59:22;;;;;;;11.60;4.15;;;;;;;21.59;56.12;102173.63;5002393;28;20046;-37
2023/10/07 09:01:57;;;;;;;11.65;3.90;;;;;;;21.59;56.14;102165.56;5006053;28;20116;-37
2023/10/07 09:04:25;;;;;;;8.50;3.50;;;;;;;21.60;56.14;102167.25;5003511;28;20053;-37
2023/10/07 09:06:51;;;;;;;10.02;3.47;;;;;;;21.61;56.11;102175.19;5001724;28;20056;-37
2023/10/07 09:09:39;;;;;;;7.82;3.45;;;;;;;21.61;56.18;102168.94;4998996;28;20054;-37
2023/10/07 09:15:13;;;;;;;7.75;3.42;;;;;;;21.66;56.17;102172.88;5004690;28;20050;-37
2023/10/07 09:17:35;;;;;;;8.95;3.28;;;;;;;21.68;56.07;102180.84;5000084;28;20047;-36
2023/10/07 09:20:06;;;;;;;7.65;3.22;;;;;;;21.69;55.90;102183.41;5004319;28;20522;-36
2023/10/07 09:22:34;;;;;;;8.73;3.30;;;;;;;21.73;55.83;102185.81;5007100;28;20129;-37
2023/10/07 09:25:17;;;;;;;7.20;3.13;;;;;;;21.74;55.76;102190.22;5002688;28;20050;-37
2023/10/07 09:27:56;;;;;;;9.23;3.83;;;;;;;21.77;55.55;102196.16;5001030;28;20786;-37
2023/10/07 09:30:44;;;;;;;10.43;3.30;;;;;;;21.79;55.72;102187.91;4997990;28;20142;-37
2023/10/07 09:33:14;;;;;;;14.05;3.33;;;;;;;21.84;55.87;102197.28;5000432;28;20045;-36
2023/10/07 09:36:06;;;;;;;11.07;3.38;;;;;;;21.87;55.93;102190.72;5000522;28;20050;-36
2023/10/07 09:38:42;;;;;;;11.38;3.58;;;;;;;21.90;55.90;102207.50;4999712;28;20131;-36
2023/10/07 09:41:12;;;;;;;9.63;3.28;;;;;;;21.94;55.98;102208.91;5000104;28;20046;-36
2023/10/07 09:43:51;;;;;;;9.00;3.17;;;;;;;21.99;55.64;102204.91;4998354;28;20061;-36
2023/10/07 09:46:25;;;;;;;8.93;3.35;;;;;;;22.01;55.33;102217.28;4999495;28;20505;-36
2023/10/07 09:48:58;;;;;;;9.02;3.33;;;;;;;22.05;55.77;102210.59;5001977;28;20145;-36
2023/10/07 09:51:28;;;;;;;8.98;3.60;;;;;;;22.08;55.51;102204.06;5005396;28;20754;-37
2023/10/07 09:54:02;;;;;;;8.75;3.85;;;;;;;22.10;55.68;102213.69;4997765;28;20086;-37
2023/10/07 09:56:43;;;;;;;;;;;;;;;22.13;55.50;102218.84;4999242;28;20341;-37
2023/10/07 09:59:43;;;;;;;8.88;3.50;;;;;;;22.16;55.55;102201.50;5003529;28;21285;-37
2023/10/07 10:02:32;;;;;;;10.02;3.10;;;;;;;22.18;55.72;102207.59;5002881;28;20053;-38
2023/10/07 10:05:11;;;;;;;8.25;3.38;;;;;;;22.22;55.84;102200.03;4997519;28;20057;-38
2023/10/07 10:07:53;;;;;;;7.82;3.55;;;;;;;22.22;55.29;102187.38;4996104;28;20132;-37
2023/10/07 10:10:30;;;;;;;10.20;3.88;;;;;;;22.25;55.25;102200.59;5014602;28;20157;-38
2023/10/07 10:13:07;;;;;;;9.80;3.38;;;;;;;22.28;55.47;102197.59;4999228;28;20137;-38
2023/10/07 10:18:06;;;;;;;6.80;3.22;;;;;;;22.33;55.28;102186.34;4998587;28;21204;-38
2023/10/07 10:20:44;;;;;;;13.55;4.57;;;;;;;22.34;55.48;102198.84;5001737;28;20502;-38
2023/10/07 10:23:20;;;;;;;16.45;3.63;;;;;;;22.35;55.41;102189.75;5002291;28;20054;-38
2023/10/07 10:25:53;;;;;;;10.15;3.80;;;;;;;22.37;55.03;102187.75;4999120;28;20057;-38
2023/10/07 10:28:27;;;;;;;12.93;3.85;;;;;;;22.38;55.11;102184.88;4996788;28;20082;-38
2023/10/07 10:30:55;;;;;;;10.13;3.13;;;;;;;22.40;54.80;102187.47;4998120;28;20064;-38
2023/10/07 10:33:25;;;;;;;16.27;3.38;;;;;;;22.41;54.86;102189.16;4997750;28;20049;-38
2023/10/07 10:35:57;;;;;;;10.32;3.88;;;;;;;22.43;54.94;102195.25;4999436;28;20433;-38
2023/10/07 10:38:37;;;;;;;10.43;3.50;;;;;;;22.43;55.24;102195.25;4995132;28;20042;-38
2023/10/07 10:41:04;;;;;;;14.27;4.35;;;;;;;22.45;55.21;102198.66;4998359;28;20189;-38
2023/10/07 10:43:31;;;;;;;8.65;3.03;;;;;;;22.45;55.23;102195.97;4997371;28;20050;-38
2023/10/07 10:46:05;;;;;;;11.48;3.17;;;;;;;22.46;54.94;102196.81;4999755;28;20046;-38
2023/10/07 10:48:37;;;;;;;10.85;3.90;;;;;;;22.47;54.91;102204.75;4996157;28;20064;-38
2023/10/07 10:51:05;;;;;;;9.30;3.80;;;;;;;22.49;54.97;102204.63;4978757;28;20450;-38
2023/10/07 10:53:40;;;;;;;12.55;3.83;;;;;;;22.48;54.80;102202.94;4995748;28;20054;-38
2023/10/07 10:56:08;;;;;;;14.80;4.55;;;;;;;22.49;54.81;102208.16;4997845;28;20174;-38
2023/10/07 10:58:39;;;;;;;10.65;3.72;;;;;;;22.49;54.94;102210.88;4997869;28;20054;-38
2023/10/07 11:01:06;;;;;;;13.57;4.82;;;;;;;22.49;54.78;102218.97;4998296;28;20161;-38
2023/10/07 11:03:32;;;;;;;12.00;3.92;;;;;;;22.49;55.30;102226.22;4994185;28;20133;-38
2023/10/07 11:06:06;;;;;;;12.48;5.10;;;;;;;22.50;55.38;102225.22;5001166;28;20116;-39
2023/10/07 11:08:33;;;;;;;12.70;4.57;;;;;;;22.52;55.31;102225.94;4999016;28;20113;-38
2023/10/07 11:11:00;;;;;;;16.42;4.63;;;;;;;22.52;54.94;102217.84;5003144;28;20053;-38
2023/10/07 11:13:32;;;;;;;11.38;4.15;;;;;;;22.52;54.86;102217.84;5000686;28;20128;-38
2023/10/07 11:16:16;;;;;;;10.38;4.43;;;;;;;22.53;55.16;102228.47;5002859;28;20070;-38
2023/10/07 11:18:45;;;;;;;13.15;4.10;;;;;;;22.55;54.83;102231.91;5001969;28;20047;-38
2023/10/07 11:21:15;;;;;;;13.43;4.75;;;;;;;22.54;54.92;102224.78;4998241;28;20136;-39
2023/10/07 11:23:50;;;;;;;12.75;4.80;;;;;;;22.55;54.96;102223.78;5003329;28;20046;-38
2023/10/07 11:26:17;;;;;;;13.70;4.68;;;;;;;22.55;55.17;102226.50;5003238;28;20057;-38
2023/10/07 11:28:44;;;;;;;12.15;4.32;;;;;;;22.56;55.27;102230.88;5002405;28;20146;-38
2023/10/07 11:31:11;;;;;;;13.10;4.32;;;;;;;22.56;54.90;102239.00;4998745;28;20073;-38
2023/10/07 11:33:49;;;;;;;11.80;4.47;;;;;;;22.57;55.18;102229.03;5003650;28;20073;-38
2023/10/07 11:36:16;;;;;;;18.40;4.43;;;;;;;22.58;55.30;102230.72;4999281;28;20050;-38
2023/10/07 11:38:43;;;;;;;9.00;3.90;;;;;;;22.58;55.19;102226.16;5002335;28;20057;-37
2023/10/07 11:41:16;;;;;;;11.00;3.85;;;;;;;22.59;54.82;102235.13;5000283;28;20057;-38
2023/10/07 11:43:43;;;;;;;12.98;4.28;;;;;;;22.59;55.00;102225.19;4997606;28;20060;-38
2023/10/07 11:46:13;;;;;;;12.90;3.85;;;;;;;22.60;54.85;102226.03;5000967;28;20046;-38
2023/10/07 11:48:41;;;;;;;11.43;4.32;;;;;;;22.61;54.84;102231.28;4996226;28;20072;-38
2023/10/07 11:51:08;;;;;;;10.77;3.90;;;;;;;22.62;54.91;102232.97;4999216;28;20176;-38
2023/10/07 11:53:35;;;;;;;15.55;4.80;;;;;;;22.62;54.70;102224.03;5001192;28;20350;-38
2023/10/07 11:56:05;;;;;;;11.90;4.18;;;;;;;22.64;54.72;102225.59;5002842;28;20042;-38
2023/10/07 11:58:32;;;;;;;15.52;4.00;;;;;;;22.65;54.61;102234.53;4998548;28;20057;-38
2023/10/07 12:01:03;;;;;;;16.40;4.63;;;;;;;22.65;54.78;102243.50;5006157;28;20105;-38
2023/10/07 12:03:32;;;;;;;16.05;4.15;;;;;;;22.65;54.79;102243.50;5000559;28;20093;-38
2023/10/07 12:05:59;;;;;;;10.02;3.58;;;;;;;22.65;54.71;102229.97;5002377;28;20056;-38
2023/10/07 12:08:26;;;;;;;10.10;3.58;;;;;;;22.67;54.95;102232.53;5003806;28;20058;-38
2023/10/07 12:10:56;;;;;;;10.25;3.65;;;;;;;22.66;54.98;102242.50;5003023;28;20054;-38
2023/10/07 12:13:23;;;;;;;10.73;4.40;;;;;;;22.67;54.67;102238.81;4998062;28;20095;-38
2023/10/07 12:15:50;;;;;;;12.55;4.20;;;;;;;22.67;54.87;102237.94;5001960;28;20402;-38
2023/10/07 12:18:31;;;;;;;9.27;3.90;;;;;;;22.67;54.76;102227.13;4999182;28;20042;-38
2023/10/07 12:21:00;;;;;;;13.75;4.15;;;;;;;22.67;54.67;102219.88;5000390;28;20117;-38
2023/10/07 12:23:28;;;;;;;12.27;4.15;;;;;;;22.68;54.46;102212.63;5002021;28;20397;-38
2023/10/07 12:25:56;;;;;;;10.93;4.40;;;;;;;22.69;54.92;102205.38;5002267;28;20057;-38
2023/10/07 12:28:24;;;;;;;13.13;3.80;;;;;;;22.70;54.46;102207.91;4997288;28;20144;-38
2023/10/07 12:30:51;;;;;;;10.98;3.90;;;;;;;22.70;54.73;102197.09;5000123;28;20096;-38